createdAt,value
2022-07-28T00:00:06.268Z,985.8
2022-07-28T00:02:08.045Z,985.8
2022-07-28T00:04:09.124Z,985.8
2022-07-28T00:06:10.145Z,985.8
2022-07-28T00:08:11.600Z,985.8
2022-07-28T00:10:12.785Z,985.8
2022-07-28T00:12:13.874Z,985.7
2022-07-28T00:16:17.397Z,985.7
2022-07-28T00:18:18.754Z,985.7
2022-07-28T00:20:19.859Z,985.8
2022-07-28T00:22:21.783Z,985.7
2022-07-28T00:24:23.416Z,985.8
2022-07-28T00:26:24.870Z,985.7
2022-07-28T00:28:25.968Z,985.6
2022-07-28T00:30:27.766Z,985.7
2022-07-28T00:32:29.305Z,985.6
2022-07-28T00:34:30.997Z,985.6
2022-07-28T00:36:32.497Z,985.6
2022-07-28T00:38:33.582Z,985.5
2022-07-28T00:40:35.201Z,985.6
2022-07-28T00:42:36.815Z,985.6
2022-07-28T00:44:38.457Z,985.6
2022-07-28T00:46:39.455Z,985.6
2022-07-28T00:48:41.031Z,985.6
2022-07-28T00:50:41.994Z,985.6
2022-07-28T00:52:43.716Z,985.7
2022-07-28T00:54:45.278Z,985.5
2022-07-28T00:56:47.057Z,985.6
2022-07-28T00:58:48.705Z,985.6
2022-07-28T01:00:49.815Z,985.6
2022-07-28T01:02:51.482Z,985.6
2022-07-28T01:05:00.711Z,985.4
2022-07-28T01:06:54.138Z,985.4
2022-07-28T01:08:55.287Z,985.4
2022-07-28T01:10:56.430Z,985.5
2022-07-28T01:14:59.467Z,985.5
2022-07-28T01:17:00.419Z,985.6
2022-07-28T01:19:01.843Z,985.7
2022-07-28T01:21:03.422Z,985.6
2022-07-28T01:23:05.058Z,985.6
2022-07-28T01:25:06.923Z,985.5
2022-07-28T01:27:08.253Z,985.5
2022-07-28T01:29:10.141Z,985.5
2022-07-28T01:31:11.698Z,985.5
2022-07-28T01:33:12.582Z,985.3
2022-07-28T01:35:13.665Z,985.3
2022-07-28T01:37:15.431Z,985.3
2022-07-28T01:41:17.659Z,985.3
2022-07-28T01:43:19.078Z,985.3
2022-07-28T01:45:20.977Z,985.3
2022-07-28T01:47:22.303Z,985.4
2022-07-28T01:49:23.845Z,985.4
2022-07-28T01:51:25.042Z,985.3
2022-07-28T01:53:26.114Z,985.3
2022-07-28T01:55:27.847Z,985.3
2022-07-28T01:57:29.412Z,985.2
2022-07-28T01:59:31.780Z,985.3
2022-07-28T02:01:32.251Z,985.3
2022-07-28T02:03:33.852Z,985.3
2022-07-28T02:05:35.715Z,985.2
2022-07-28T02:08:20.680Z,985.1
2022-07-28T02:10:22.269Z,985.1
2022-07-28T02:12:23.863Z,985
2022-07-28T02:14:25.072Z,985
2022-07-28T02:16:26.717Z,985.2
2022-07-28T02:18:28.344Z,985.2
2022-07-28T02:20:30.238Z,985.1
2022-07-28T02:22:32.064Z,985.1
2022-07-28T02:24:32.994Z,985.1
2022-07-28T02:28:35.987Z,985
2022-07-28T02:30:37.377Z,985
2022-07-28T02:34:40.216Z,985
2022-07-28T02:36:41.469Z,985
2022-07-28T02:38:43.093Z,984.9
2022-07-28T02:40:44.196Z,985
2022-07-28T02:42:45.559Z,985
2022-07-28T02:44:47.042Z,985
2022-07-28T02:46:48.647Z,985.1
2022-07-28T02:48:49.606Z,985
2022-07-28T02:50:51.393Z,985
2022-07-28T02:52:52.528Z,985
2022-07-28T02:54:54.024Z,985
2022-07-28T02:56:55.755Z,985
2022-07-28T02:58:56.728Z,985
2022-07-28T03:00:57.700Z,985
2022-07-28T03:02:59.417Z,985
2022-07-28T03:05:00.670Z,985
2022-07-28T03:07:02.380Z,985
2022-07-28T03:09:03.811Z,985
2022-07-28T03:11:05.441Z,985
2022-07-28T03:13:06.374Z,985
2022-07-28T03:15:08.146Z,985.1
2022-07-28T03:17:09.504Z,985.1
2022-07-28T03:19:10.933Z,985
2022-07-28T03:21:12.701Z,985
2022-07-28T03:23:14.177Z,985
2022-07-28T03:25:15.211Z,985
2022-07-28T03:27:16.991Z,985.1
2022-07-28T03:29:18.211Z,985
2022-07-28T03:38:29.533Z,985.1
2022-07-28T03:39:32.552Z,985.1
2022-07-28T03:42:37.494Z,984.9
2022-07-28T03:43:30.758Z,985
2022-07-28T03:45:33.173Z,985
2022-07-28T03:47:31.686Z,985.2
2022-07-28T03:49:33.021Z,985.2
2022-07-28T03:51:34.335Z,985.1
2022-07-28T03:53:35.360Z,985.1
2022-07-28T03:55:36.758Z,985.1
2022-07-28T03:57:38.417Z,985.1
2022-07-28T03:59:39.632Z,985.1
2022-07-28T04:01:41.163Z,985.1
2022-07-28T04:03:44.381Z,985.1
2022-07-28T04:05:44.495Z,985.1
2022-07-28T04:07:45.711Z,985.2
2022-07-28T04:09:47.106Z,985.1
2022-07-28T04:11:48.162Z,985
2022-07-28T04:15:50.718Z,985.1
2022-07-28T04:17:52.569Z,985.1
2022-07-28T04:19:54.270Z,985.1
2022-07-28T04:21:55.561Z,985.1
2022-07-28T04:24:01.487Z,985.1
2022-07-28T04:25:58.617Z,985.1
2022-07-28T04:27:59.947Z,985.1
2022-07-28T04:30:00.966Z,985.2
2022-07-28T04:32:01.862Z,985
2022-07-28T04:34:03.514Z,985.1
2022-07-28T04:36:05.372Z,985
2022-07-28T04:38:07.233Z,985
2022-07-28T04:42:09.526Z,985
2022-07-28T04:44:11.141Z,985
2022-07-28T04:46:14.908Z,985
2022-07-28T04:48:13.155Z,985
2022-07-28T04:52:16.062Z,984.9
2022-07-28T04:54:19.195Z,985
2022-07-28T04:56:18.651Z,985
2022-07-28T04:58:19.667Z,985
2022-07-28T05:00:22.753Z,985
2022-07-28T05:02:22.454Z,985
2022-07-28T05:04:23.765Z,985
2022-07-28T05:06:25.319Z,985
2022-07-28T05:08:26.767Z,985
2022-07-28T05:10:28.186Z,985
2022-07-28T05:12:30.046Z,984.9
2022-07-28T05:14:30.994Z,984.9
2022-07-28T05:16:32.211Z,984.9
2022-07-28T05:18:33.323Z,984.9
2022-07-28T05:20:34.612Z,984.9
2022-07-28T05:22:35.576Z,985
2022-07-28T05:24:36.744Z,985
2022-07-28T05:26:38.091Z,984.9
2022-07-28T05:28:39.271Z,984.9
2022-07-28T05:30:40.967Z,984.9
2022-07-28T05:32:42.230Z,984.9
2022-07-28T05:34:43.450Z,984.9
2022-07-28T05:36:45.106Z,984.9
2022-07-28T05:38:46.130Z,985
2022-07-28T05:40:47.371Z,984.9
2022-07-28T05:42:48.519Z,985
2022-07-28T05:44:49.789Z,984.9
2022-07-28T05:46:51.163Z,984.9
2022-07-28T05:48:52.689Z,985.1
2022-07-28T05:50:53.938Z,985
2022-07-28T05:52:55.099Z,985
2022-07-28T05:56:58.287Z,985
2022-07-28T05:58:59.768Z,985.1
2022-07-28T06:01:01.593Z,985
2022-07-28T06:03:02.434Z,985
2022-07-28T06:05:03.449Z,985
2022-07-28T06:07:04.782Z,985
2022-07-28T06:09:06.347Z,985
2022-07-28T06:11:07.956Z,985
2022-07-28T06:13:09.737Z,985
2022-07-28T06:15:10.921Z,985
2022-07-28T06:17:11.865Z,985
2022-07-28T06:19:13.013Z,985
2022-07-28T06:23:16.695Z,985
2022-07-28T06:25:17.537Z,985
2022-07-28T06:27:18.527Z,984.9
2022-07-28T06:29:20.065Z,984.9
2022-07-28T06:31:21.003Z,984.9
2022-07-28T06:33:22.470Z,984.9
2022-07-28T06:35:24.124Z,985
2022-07-28T06:37:25.525Z,985.1
2022-07-28T06:39:26.748Z,985.1
2022-07-28T06:41:27.552Z,985.1
2022-07-28T06:43:28.705Z,985.1
2022-07-28T06:45:30.075Z,985.1
2022-07-28T06:47:31.172Z,985
2022-07-28T06:49:32.403Z,985
2022-07-28T06:51:33.153Z,985
2022-07-28T06:53:34.913Z,985.1
2022-07-28T06:55:44.007Z,985
2022-07-28T06:57:37.771Z,985
2022-07-28T06:59:39.482Z,985.1
2022-07-28T07:01:40.972Z,985.1
2022-07-28T07:03:42.609Z,985
2022-07-28T07:05:44.006Z,985
2022-07-28T07:07:45.885Z,985
2022-07-28T07:09:46.999Z,985
2022-07-28T07:13:49.528Z,985
2022-07-28T07:15:50.556Z,985
2022-07-28T07:17:51.467Z,985
2022-07-28T07:21:54.463Z,984.9
2022-07-28T07:23:55.994Z,984.9
2022-07-28T07:25:57.492Z,985
2022-07-28T07:27:59.179Z,984.9
2022-07-28T07:30:00.415Z,984.9
2022-07-28T07:32:02.970Z,984.9
2022-07-28T07:34:03.600Z,984.9
2022-07-28T07:38:06.289Z,984.8
2022-07-28T07:40:08.250Z,984.7
2022-07-28T07:42:09.188Z,984.7
2022-07-28T07:44:10.450Z,984.6
2022-07-28T07:46:12.213Z,984.7
2022-07-28T07:48:13.661Z,984.6
2022-07-28T07:50:14.754Z,984.6
2022-07-28T07:52:16.206Z,984.7
2022-07-28T07:54:18.001Z,984.7
2022-07-28T07:56:18.542Z,984.6
2022-07-28T07:58:19.636Z,984.6
2022-07-28T08:00:28.442Z,984.7
2022-07-28T08:02:22.995Z,984.6
2022-07-28T08:04:25.225Z,984.6
2022-07-28T08:06:26.419Z,984.7
2022-07-28T08:08:27.001Z,984.7
2022-07-28T08:10:28.334Z,984.6
2022-07-28T08:12:29.922Z,984.8
2022-07-28T08:14:31.304Z,984.7
2022-07-28T08:16:32.736Z,984.7
2022-07-28T08:18:34.149Z,984.7
2022-07-28T08:20:35.816Z,984.8
2022-07-28T08:22:37.444Z,984.8
2022-07-28T08:24:38.258Z,984.8
2022-07-28T08:26:39.442Z,984.7
2022-07-28T08:28:40.492Z,984.7
2022-07-28T08:30:41.311Z,984.7
2022-07-28T08:32:42.928Z,984.6
2022-07-28T08:34:44.488Z,984.7
2022-07-28T08:36:45.282Z,984.7
2022-07-28T08:38:46.560Z,984.6
2022-07-28T08:40:47.986Z,984.7
2022-07-28T08:42:49.168Z,984.6
2022-07-28T08:44:50.066Z,984.7
2022-07-28T08:46:51.075Z,984.7
2022-07-28T08:48:52.601Z,984.7
2022-07-28T08:50:53.409Z,984.6
2022-07-28T08:51:38.136Z,984.7
2022-07-28T08:53:39.514Z,984.6
2022-07-28T08:57:42.355Z,984.7
2022-07-28T08:59:43.682Z,984.7
2022-07-28T09:01:44.959Z,984.7
2022-07-28T09:03:46.637Z,984.6
2022-07-28T09:05:47.758Z,984.7
2022-07-28T09:09:49.522Z,984.6
2022-07-28T09:11:51.060Z,984.6
2022-07-28T09:13:53.956Z,984.6
2022-07-28T09:15:53.496Z,984.6
2022-07-28T09:17:55.055Z,984.6
2022-07-28T09:19:56.512Z,984.6
2022-07-28T09:21:58.119Z,984.6
2022-07-28T09:23:59.537Z,984.6
2022-07-28T09:26:00.820Z,984.5
2022-07-28T09:28:02.311Z,984.5
2022-07-28T09:30:03.775Z,984.6
2022-07-28T09:32:05.121Z,984.5
2022-07-28T09:34:06.438Z,984.6
2022-07-28T09:40:10.637Z,984.4
2022-07-28T09:42:11.041Z,984.4
2022-07-28T09:44:12.111Z,984.4
2022-07-28T09:46:13.545Z,984.4
2022-07-28T09:48:14.762Z,984.4
2022-07-28T09:50:15.858Z,984.4
2022-07-28T09:52:16.668Z,984.5
2022-07-28T09:54:18.460Z,984.4
2022-07-28T09:56:18.893Z,984.3
2022-07-28T09:58:20.542Z,984.3
2022-07-28T10:00:21.902Z,984.4
2022-07-28T10:02:23.383Z,984.2
2022-07-28T10:04:24.732Z,984.2
2022-07-28T10:06:26.243Z,984.2
2022-07-28T10:08:27.651Z,984.3
2022-07-28T10:10:29.225Z,984.2
2022-07-28T10:12:30.699Z,984.2
2022-07-28T10:14:31.537Z,984.3
2022-07-28T10:16:33.397Z,984.2
2022-07-28T10:18:35.088Z,984.2
2022-07-28T10:20:36.046Z,984.1
2022-07-28T10:22:42.590Z,984.1
2022-07-28T10:24:39.139Z,984.1
2022-07-28T10:26:40.799Z,984.1
2022-07-28T10:28:42.392Z,984.1
2022-07-28T10:30:42.810Z,984
2022-07-28T10:32:44.170Z,984
2022-07-28T10:34:45.153Z,983.9
2022-07-28T10:36:46.076Z,983.9
2022-07-28T10:38:47.556Z,983.9
2022-07-28T10:40:49.110Z,983.8
2022-07-28T10:42:49.968Z,983.9
2022-07-28T10:44:51.046Z,983.9
2022-07-28T10:46:52.908Z,983.9
2022-07-28T10:48:54.190Z,983.9
2022-07-28T10:50:55.833Z,983.9
2022-07-28T10:52:59.167Z,983.9
2022-07-28T10:54:58.279Z,984
2022-07-28T10:56:59.620Z,983.8
2022-07-28T10:59:04.633Z,983.8
2022-07-28T11:03:11.814Z,983.7
2022-07-28T11:05:04.386Z,983.8
2022-07-28T11:07:05.491Z,983.8
2022-07-28T11:09:07.058Z,983.7
2022-07-28T11:11:09.564Z,983.7
2022-07-28T11:13:14.442Z,983.7
2022-07-28T11:15:15.568Z,983.6
2022-07-28T11:19:38.123Z,983.6
2022-07-28T11:21:16.470Z,983.6
2022-07-28T11:23:14.963Z,983.6
2022-07-28T11:25:20.194Z,983.7
2022-07-28T11:27:16.871Z,983.6
2022-07-28T11:29:18.372Z,983.6
2022-07-28T11:31:19.821Z,983.5
2022-07-28T11:33:21.293Z,983.5
2022-07-28T11:35:22.372Z,983.5
2022-07-28T11:37:23.190Z,983.4
2022-07-28T11:39:24.419Z,983.5
2022-07-28T11:41:25.585Z,983.5
2022-07-28T11:43:30.645Z,983.6
2022-07-28T11:45:37.976Z,983.5
2022-07-28T11:47:29.535Z,983.6
2022-07-28T11:49:30.797Z,983.5
2022-07-28T11:51:31.676Z,983.5
2022-07-28T11:53:33.218Z,983.5
2022-07-28T11:55:49.593Z,983.3
2022-07-28T11:57:44.551Z,983.5
2022-07-28T11:59:37.387Z,983.6
2022-07-28T12:01:38.578Z,983.5
2022-07-28T12:03:39.003Z,983.5
2022-07-28T12:05:41.863Z,983.4
2022-07-28T12:07:41.834Z,983.4
2022-07-28T12:09:43.513Z,983.4
2022-07-28T12:11:45.057Z,983.3
2022-07-28T12:13:45.856Z,983.3
2022-07-28T12:15:47.221Z,983.3
2022-07-28T12:17:48.924Z,983.3
2022-07-28T12:19:50.381Z,983.3
2022-07-28T12:21:51.722Z,983.3
2022-07-28T12:23:52.752Z,983.3
2022-07-28T12:25:54.106Z,983.3
2022-07-28T12:27:54.946Z,983.3
2022-07-28T12:31:57.445Z,983.3
2022-07-28T12:33:59.297Z,983.3
2022-07-28T12:35:59.929Z,983.3
2022-07-28T12:38:01.666Z,983.3
2022-07-28T12:40:02.729Z,983.3
2022-07-28T12:42:03.646Z,983.2
2022-07-28T12:44:05.684Z,983.1
2022-07-28T12:46:06.074Z,983.1
2022-07-28T12:48:06.871Z,983.2
2022-07-28T12:50:08.202Z,983.2
2022-07-28T12:54:11.588Z,983.1
2022-07-28T12:56:12.237Z,983.1
2022-07-28T12:58:13.317Z,983.2
2022-07-28T13:00:14.677Z,983.1
2022-07-28T13:02:16.209Z,983.1
2022-07-28T13:04:17.795Z,983.1
2022-07-28T13:06:18.704Z,983.1
2022-07-28T13:08:20.759Z,983.1
2022-07-28T13:10:21.738Z,983.1
2022-07-28T13:12:23.173Z,983
2022-07-28T13:14:25.640Z,983
2022-07-28T13:16:25.931Z,983
2022-07-28T13:18:27.268Z,983.1
2022-07-28T13:20:28.555Z,983
2022-07-28T13:22:29.622Z,982.9
2022-07-28T13:24:30.881Z,982.8
2022-07-28T13:26:31.652Z,982.9
2022-07-28T13:28:32.898Z,982.8
2022-07-28T13:30:34.195Z,982.8
2022-07-28T13:32:35.250Z,982.8
2022-07-28T13:34:36.136Z,982.8
2022-07-28T13:36:36.876Z,982.7
2022-07-28T13:38:38.050Z,982.7
2022-07-28T13:40:39.023Z,982.8
2022-07-28T13:42:40.540Z,982.7
2022-07-28T13:44:41.946Z,982.8
2022-07-28T13:46:45.336Z,982.7
2022-07-28T13:48:57.527Z,982.7
2022-07-28T13:50:45.240Z,982.8
2022-07-28T13:52:45.943Z,982.7
2022-07-28T13:54:47.493Z,982.7
2022-07-28T13:56:49.021Z,982.8
2022-07-28T13:58:50.474Z,982.7
2022-07-28T14:00:51.803Z,982.6
2022-07-28T14:02:53.329Z,982.6
2022-07-28T14:04:54.795Z,982.7
2022-07-28T14:06:56.514Z,982.6
2022-07-28T14:08:57.428Z,982.7
2022-07-28T14:10:58.364Z,982.6
2022-07-28T14:12:59.690Z,982.6
2022-07-28T14:15:00.554Z,982.5
2022-07-28T14:17:10.280Z,982.5
2022-07-28T14:19:02.804Z,982.5
2022-07-28T14:23:05.329Z,982.5
2022-07-28T14:25:06.766Z,982.5
2022-07-28T14:27:07.444Z,982.4
2022-07-28T14:31:10.407Z,982.6
2022-07-28T14:33:11.759Z,982.5
2022-07-28T14:35:13.256Z,982.4
2022-07-28T14:37:14.409Z,982.4
2022-07-28T14:39:15.659Z,982.4
2022-07-28T14:41:16.743Z,982.4
2022-07-28T14:43:18.723Z,982.4
2022-07-28T14:45:19.745Z,982.4
2022-07-28T14:47:21.550Z,982.4
2022-07-28T14:49:22.956Z,982.4
2022-07-28T14:51:24.112Z,982.4
2022-07-28T14:53:27.874Z,982.4
2022-07-28T14:55:26.659Z,982.4
2022-07-28T14:57:46.926Z,982.3
2022-07-28T14:59:28.824Z,982.3
2022-07-28T15:03:36.171Z,982.3
2022-07-28T15:05:33.249Z,982.3
2022-07-28T15:07:34.049Z,982.3
2022-07-28T15:09:38.669Z,982.2
2022-07-28T15:11:35.908Z,982.2
2022-07-28T15:13:37.411Z,982.2
2022-07-28T15:15:41.641Z,982.2
2022-07-28T15:17:39.980Z,982.2
2022-07-28T15:19:41.273Z,982.2
2022-07-28T15:21:42.655Z,982.3
2022-07-28T15:23:44.389Z,982.2
2022-07-28T15:25:45.193Z,982.3
2022-07-28T15:27:46.310Z,982.3
2022-07-28T15:29:47.241Z,982.3
2022-07-28T15:31:49.016Z,982.2
2022-07-28T15:33:51.716Z,982.3
2022-07-28T15:35:57.842Z,982.3
2022-07-28T15:37:52.382Z,982.2
2022-07-28T15:40:37.601Z,982.2
2022-07-28T15:42:38.781Z,982.2
2022-07-28T15:44:40.098Z,982.2
2022-07-28T15:48:42.233Z,982.1
2022-07-28T15:50:43.218Z,982.1
2022-07-28T15:52:44.246Z,982.1
2022-07-28T15:54:46.619Z,982.1
2022-07-28T15:56:47.802Z,982
2022-07-28T15:58:48.917Z,982
2022-07-28T16:00:50.573Z,982
2022-07-28T16:02:51.608Z,982.1
2022-07-28T16:06:54.025Z,982
2022-07-28T16:08:55.419Z,982
2022-07-28T16:10:56.249Z,982
2022-07-28T16:12:57.565Z,982
2022-07-28T16:14:58.582Z,982
2022-07-28T16:16:59.612Z,982
2022-07-28T16:19:20.080Z,982.1
2022-07-28T16:21:01.773Z,981.9
2022-07-28T16:23:03.355Z,982
2022-07-28T16:25:04.318Z,982
2022-07-28T16:27:05.850Z,981.8
2022-07-28T16:29:06.801Z,981.9
2022-07-28T16:31:07.869Z,981.9
2022-07-28T16:33:09.582Z,981.9
2022-07-28T16:35:11.266Z,981.9
2022-07-28T16:37:16.027Z,981.8
2022-07-28T16:39:13.354Z,981.8
2022-07-28T16:41:16.128Z,981.7
2022-07-28T16:43:15.711Z,981.7
2022-07-28T16:45:16.906Z,981.8
2022-07-28T16:47:18.257Z,981.8
2022-07-28T16:49:19.610Z,981.7
2022-07-28T16:51:20.393Z,981.8
2022-07-28T16:53:21.930Z,981.7
2022-07-28T16:55:23.856Z,981.6
2022-07-28T16:57:24.995Z,981.7
2022-07-28T16:59:36.423Z,981.7
2022-07-28T17:01:27.647Z,981.7
2022-07-28T17:03:28.748Z,981.7
2022-07-28T17:05:30.210Z,981.7
2022-07-28T17:07:31.797Z,981.6
2022-07-28T17:09:32.607Z,981.7
2022-07-28T17:11:34.394Z,981.7
2022-07-28T17:13:35.980Z,981.6
2022-07-28T17:15:36.982Z,981.6
2022-07-28T17:17:38.216Z,981.7
2022-07-28T17:19:43.504Z,981.7
2022-07-28T17:21:40.560Z,981.7
2022-07-28T17:23:41.461Z,981.7
2022-07-28T17:25:59.475Z,981.8
2022-07-28T17:27:48.063Z,981.7
2022-07-28T17:29:45.972Z,981.8
2022-07-28T17:31:47.398Z,981.8
2022-07-28T17:33:49.147Z,981.8
2022-07-28T17:35:49.994Z,981.7
2022-07-28T17:37:50.829Z,981.8
2022-07-28T17:39:51.809Z,981.8
2022-07-28T17:41:53.494Z,981.7
2022-07-28T17:43:54.927Z,981.8
2022-07-28T17:45:56.429Z,981.7
2022-07-28T17:47:57.864Z,981.8
2022-07-28T17:49:58.764Z,981.8
2022-07-28T17:52:00.174Z,981.8
2022-07-28T17:54:01.303Z,981.8
2022-07-28T17:56:02.319Z,981.9
2022-07-28T17:58:04.038Z,981.8
2022-07-28T18:00:05.224Z,981.9
2022-07-28T18:04:08.670Z,981.9
2022-07-28T18:06:09.812Z,981.8
2022-07-28T18:08:11.071Z,981.7
2022-07-28T18:10:12.236Z,981.9
2022-07-28T18:12:13.530Z,981.9
2022-07-28T18:14:15.604Z,982
2022-07-28T18:16:16.236Z,981.9
2022-07-28T18:18:17.130Z,982
2022-07-28T18:20:18.243Z,982
2022-07-28T18:22:20.042Z,982
2022-07-28T18:24:21.402Z,982
2022-07-28T18:26:23.000Z,982
2022-07-28T18:28:23.987Z,982.1
2022-07-28T18:30:24.893Z,982
2022-07-28T18:32:25.805Z,982.2
2022-07-28T18:34:27.488Z,982.2
2022-07-28T18:36:28.947Z,982.2
2022-07-28T18:38:30.319Z,982.2
2022-07-28T18:40:32.097Z,982.2
2022-07-28T18:44:34.227Z,982
2022-07-28T18:46:35.881Z,982
2022-07-28T18:48:37.430Z,982
2022-07-28T18:50:40.776Z,982
2022-07-28T18:52:40.946Z,982
2022-07-28T18:54:42.297Z,982
2022-07-28T18:56:44.129Z,982.1
2022-07-28T18:58:45.875Z,982
2022-07-28T19:00:46.846Z,982
2022-07-28T19:02:48.554Z,981.9
2022-07-28T19:04:49.572Z,982
2022-07-28T19:06:50.662Z,982
2022-07-28T19:08:52.245Z,982.1
2022-07-28T19:12:55.293Z,982.1
2022-07-28T19:14:57.019Z,982
2022-07-28T19:16:58.407Z,982
2022-07-28T19:18:59.986Z,982
2022-07-28T19:21:01.682Z,982.1
2022-07-28T19:23:05.229Z,982.1
2022-07-28T19:25:04.689Z,982
2022-07-28T19:27:05.962Z,982.1
2022-07-28T19:29:06.822Z,982
2022-07-28T19:31:10.348Z,982
2022-07-28T19:33:09.768Z,982.1
2022-07-28T19:35:11.319Z,982.2
2022-07-28T19:37:15.747Z,982.2
2022-07-28T19:39:14.212Z,982.3
2022-07-28T19:41:15.556Z,982.2
2022-07-28T19:43:17.103Z,982.3
2022-07-28T19:45:18.867Z,982.3
2022-07-28T19:47:20.233Z,982.4
2022-07-28T19:49:21.722Z,982.2
2022-07-28T19:51:22.614Z,982.3
2022-07-28T19:53:25.085Z,982.2
2022-07-28T19:55:24.901Z,982.3
2022-07-28T19:57:26.600Z,982.3
2022-07-28T19:59:27.769Z,982.3
2022-07-28T20:01:28.903Z,982.4
2022-07-28T20:04:02.755Z,982.4
2022-07-28T20:05:31.451Z,982.4
2022-07-28T20:07:32.886Z,982.4
2022-07-28T20:11:35.197Z,982.6
2022-07-28T20:13:36.228Z,982.6
2022-07-28T20:15:37.103Z,982.5
2022-07-28T20:17:39.252Z,982.6
2022-07-28T20:19:40.031Z,982.7
2022-07-28T20:21:41.498Z,982.7
2022-07-28T20:23:42.656Z,982.7
2022-07-28T20:27:44.564Z,982.6
2022-07-28T20:29:45.661Z,982.6
2022-07-28T20:31:46.578Z,982.6
2022-07-28T20:33:47.492Z,982.7
2022-07-28T20:35:48.337Z,982.8
2022-07-28T20:37:49.675Z,982.8
2022-07-28T20:39:51.088Z,982.8
2022-07-28T20:41:52.274Z,982.9
2022-07-28T20:44:11.582Z,982.8
2022-07-28T20:45:55.620Z,982.9
2022-07-28T20:47:56.661Z,983
2022-07-28T20:49:58.443Z,982.9
2022-07-28T20:51:59.460Z,982.9
2022-07-28T20:54:00.333Z,982.9
2022-07-28T20:56:01.224Z,983
2022-07-28T20:58:02.378Z,983.1
2022-07-28T21:00:03.888Z,983.1
2022-07-28T21:02:05.073Z,983.2
2022-07-28T21:04:06.074Z,983.3
2022-07-28T21:06:07.849Z,983.2
2022-07-28T21:08:16.063Z,983.2
2022-07-28T21:10:10.364Z,983.2
2022-07-28T21:12:11.577Z,983.1
2022-07-28T21:14:13.333Z,983.1
2022-07-28T21:16:14.496Z,983.1
2022-07-28T21:18:16.142Z,983.2
2022-07-28T21:20:17.968Z,983.1
2022-07-28T21:22:18.988Z,983.2
2022-07-28T21:24:20.202Z,983.2
2022-07-28T21:26:21.217Z,983.1
2022-07-28T21:28:22.320Z,983.1
2022-07-28T21:30:27.743Z,983
2022-07-28T21:32:25.161Z,983.2
2022-07-28T21:34:26.846Z,983.1
2022-07-28T21:36:27.752Z,983.1
2022-07-28T21:38:29.305Z,983.1
2022-07-28T21:40:30.302Z,983.1
2022-07-28T21:42:31.589Z,983.2
2022-07-28T21:44:33.159Z,983.3
2022-07-28T21:46:34.088Z,983.3
2022-07-28T21:48:35.317Z,983.4
2022-07-28T21:52:38.276Z,983.3
2022-07-28T21:54:39.758Z,983.4
2022-07-28T21:56:40.946Z,983.4
2022-07-28T21:58:42.152Z,983.4
2022-07-28T22:00:43.432Z,983.4
2022-07-28T22:02:44.825Z,983.4
2022-07-28T22:04:45.813Z,983.3
2022-07-28T22:08:48.050Z,983.4
2022-07-28T22:10:49.774Z,983.4
2022-07-28T22:12:51.390Z,983.4
2022-07-28T22:14:52.516Z,983.5
2022-07-28T22:16:54.111Z,983.5
2022-07-28T22:18:55.502Z,983.5
2022-07-28T22:20:57.106Z,983.5
2022-07-28T22:22:58.650Z,983.5
2022-07-28T22:23:42.414Z,983.5
2022-07-28T22:25:43.639Z,983.6
2022-07-28T22:29:51.362Z,983.5
2022-07-28T22:31:47.457Z,983.5
2022-07-28T22:33:48.270Z,983.4
2022-07-28T22:35:49.424Z,983.4
2022-07-28T22:39:51.409Z,983.4
2022-07-28T22:41:53.197Z,983.5
2022-07-28T22:43:54.854Z,983.5
2022-07-28T22:45:56.054Z,983.5
2022-07-28T22:47:57.715Z,983.5
2022-07-28T22:49:59.062Z,983.4
2022-07-28T22:52:00.223Z,983.6
2022-07-28T22:54:01.419Z,983.7
2022-07-28T22:56:03.152Z,983.8
2022-07-28T22:58:05.429Z,984
2022-07-28T23:00:05.957Z,983.9
2022-07-28T23:02:07.327Z,983.8
2022-07-28T23:04:08.637Z,983.7
2022-07-28T23:06:10.172Z,983.7
2022-07-28T23:08:11.728Z,983.7
2022-07-28T23:10:12.904Z,983.6
2022-07-28T23:12:14.070Z,983.7
2022-07-28T23:14:15.538Z,983.7
2022-07-28T23:16:16.530Z,983.7
2022-07-28T23:18:18.260Z,983.6
2022-07-28T23:20:19.989Z,983.6
2022-07-28T23:22:20.966Z,983.5
2022-07-28T23:24:22.420Z,983.6
2022-07-28T23:26:24.073Z,983.6
2022-07-28T23:28:25.311Z,983.7
2022-07-28T23:30:26.382Z,983.6
2022-07-28T23:32:27.689Z,983.6
2022-07-28T23:34:28.943Z,983.6
2022-07-28T23:36:29.994Z,983.6
2022-07-28T23:38:31.422Z,983.6
2022-07-28T23:40:32.661Z,983.6
2022-07-28T23:42:34.334Z,983.6
2022-07-28T23:44:35.944Z,983.5
2022-07-28T23:46:37.513Z,983.6
2022-07-28T23:48:39.280Z,983.5
2022-07-28T23:50:40.211Z,983.4
2022-07-28T23:52:41.882Z,983.4
2022-07-28T23:54:42.891Z,983.4
2022-07-28T23:56:44.359Z,983.4
2022-07-28T23:58:45.768Z,983.4
